Map

Track Data

SID SEASON NUMBER BASIN SUBBASIN NAME ISO_TIME NATURE LAT LON WMO_WIND WMO_PRES WMO_AGENCY TRACK_TYPE DIST2LAND LANDFALL IFLAG USA_AGENCY USA_ATCF_ID USA_LAT USA_LON USA_RECORD USA_STATUS USA_WIND USA_PRES USA_SSHS USA_R34_NE USA_R34_SE USA_R34_SW USA_R34_NW USA_R50_NE USA_R50_SE USA_R50_SW USA_R50_NW USA_R64_NE USA_R64_SE USA_R64_SW USA_R64_NW USA_POCI USA_ROCI USA_RMW USA_EYE TOKYO_LAT TOKYO_LON TOKYO_GRADE TOKYO_WIND TOKYO_PRES TOKYO_R50_DIR TOKYO_R50_LONG TOKYO_R50_SHORT TOKYO_R30_DIR TOKYO_R30_LONG TOKYO_R30_SHORT TOKYO_LAND CMA_LAT CMA_LON CMA_CAT CMA_WIND CMA_PRES HKO_LAT HKO_LON HKO_CAT HKO_WIND HKO_PRES NEWDELHI_LAT NEWDELHI_LON NEWDELHI_GRADE NEWDELHI_WIND NEWDELHI_PRES NEWDELHI_CI NEWDELHI_DP NEWDELHI_POCI REUNION_LAT REUNION_LON REUNION_TYPE REUNION_WIND REUNION_PRES REUNION_TNUM REUNION_CI REUNION_RMW REUNION_R34_NE REUNION_R34_SE REUNION_R34_SW REUNION_R34_NW REUNION_R50_NE REUNION_R50_SE REUNION_R50_SW REUNION_R50_NW REUNION_R64_NE REUNION_R64_SE REUNION_R64_SW REUNION_R64_NW BOM_LAT BOM_LON BOM_TYPE BOM_WIND BOM_PRES BOM_TNUM BOM_CI BOM_RMW BOM_R34_NE BOM_R34_SE BOM_R34_SW BOM_R34_NW BOM_R50_NE BOM_R50_SE BOM_R50_SW BOM_R50_NW BOM_R64_NE BOM_R64_SE BOM_R64_SW BOM_R64_NW BOM_ROCI BOM_POCI BOM_EYE BOM_POS_METHOD BOM_PRES_METHOD NADI_LAT NADI_LON NADI_CAT NADI_WIND NADI_PRES WELLINGTON_LAT WELLINGTON_LON WELLINGTON_WIND WELLINGTON_PRES DS824_LAT DS824_LON DS824_STAGE DS824_WIND DS824_PRES TD9636_LAT TD9636_LON TD9636_STAGE TD9636_WIND TD9636_PRES TD9635_LAT TD9635_LON TD9635_WIND TD9635_PRES TD9635_ROCI NEUMANN_LAT NEUMANN_LON NEUMANN_CLASS NEUMANN_WIND NEUMANN_PRES MLC_LAT MLC_LON MLC_CLASS MLC_WIND MLC_PRES USA_GUST BOM_GUST BOM_GUST_PER REUNION_GUST REUNION_GUST_PER USA_SEAHGT USA_SEARAD_NE USA_SEARAD_SE USA_SEARAD_SW USA_SEARAD_NW STORM_SPEED STORM_DIR
1922233N18144 1922 45 WP MM NOT_NAMED 1922-08-20 22:00:00 NR 18.2000 143.600 main 1866 1836 __________O___ -1 18.2000 143.600 7 9 0
1922233N18144 1922 45 WP MM NOT_NAMED 1922-08-21 00:00:00 NR 18.4860 143.575 main 1836 1790 __________P___ -1 18.4860 143.575 7 9 356
1922233N18144 1922 45 WP MM NOT_NAMED 1922-08-21 03:00:00 NR 18.9202 143.535 main 1790 1739 __________P___ -1 18.9202 143.535 7 9 354
1922233N18144 1922 45 WP MM NOT_NAMED 1922-08-21 06:00:00 NR 19.3679 143.486 main 1739 1694 __________P___ -1 19.3679 143.486 7 9 354
1922233N18144 1922 45 WP MM NOT_NAMED 1922-08-21 09:00:00 NR 19.8373 143.424 main 1694 1674 __________P___ -1 19.8373 143.424 7 10 353
1922233N18144 1922 45 WP MM NOT_NAMED 1922-08-21 10:00:00 NR 20.0000 143.400 main 1674 1639 __________O___ -1 20.0000 143.400 7 10 351
1922233N18144 1922 45 WP MM NOT_NAMED 1922-08-21 12:00:00 NR 20.3350 143.345 main 1639 1574 __________P___ -1 20.3350 143.345 7 10 351
1922233N18144 1922 45 WP MM NOT_NAMED 1922-08-21 15:00:00 NR 20.8505 143.249 main 1574 1519 __________P___ -1 20.8505 143.249 7 11 350
1922233N18144 1922 45 WP MM NOT_NAMED 1922-08-21 18:00:00 NR 21.3620 143.144 main 1519 1475 __________P___ -1 21.3620 143.144 7 10 349
1922233N18144 1922 45 WP MM NOT_NAMED 1922-08-21 21:00:00 NR 21.8476 143.036 main 1475 1455 __________P___ -1 21.8476 143.036 7 10 348
1922233N18144 1922 45 WP MM NOT_NAMED 1922-08-21 22:00:00 NR 22.0000 143.000 main 1455 1420 __________O___ -1 22.0000 143.000 3 9 347
1922233N18144 1922 45 WP MM NOT_NAMED 1922-08-22 00:00:00 NR 22.2785 142.931 main 1420 1376 __________P___ -1 22.2785 142.931 3 8 347
1922233N18144 1922 45 WP MM NOT_NAMED 1922-08-22 03:00:00 NR 22.6648 142.826 main 1376 1342 __________P___ -1 22.6648 142.826 3 8 346
1922233N18144 1922 45 WP MM NOT_NAMED 1922-08-22 06:00:00 NR 23.0271 142.725 main 1342 1298 __________P___ -1 23.0271 142.725 3 7 346
1922233N18144 1922 45 WP MM NOT_NAMED 1922-08-22 09:00:00 NR 23.3811 142.630 main 1298 1288 __________P___ -1 23.3811 142.630 3 7 347
1922233N18144 1922 45 WP MM NOT_NAMED 1922-08-22 10:00:00 NR 23.5000 142.600 main 1288 1264 __________O___ -1 23.5000 142.600 4 7 348
1922233N18144 1922 45 WP MM NOT_NAMED 1922-08-22 12:00:00 NR 23.7415 142.543 main 1264 1225 __________P___ -1 23.7415 142.543 4 8 349
1922233N18144 1922 45 WP MM NOT_NAMED 1922-08-22 15:00:00 NR 24.1122 142.465 main 1225 1179 __________P___ -1 24.1122 142.465 4 8 350
1922233N18144 1922 45 WP MM NOT_NAMED 1922-08-22 18:00:00 NR 24.4902 142.392 main 1179 1133 __________P___ -1 24.4902 142.392 4 8 350
1922233N18144 1922 45 WP MM NOT_NAMED 1922-08-22 21:00:00 NR 24.8723 142.323 main 1133 1122 __________P___ -1 24.8723 142.323 4 8 351
1922233N18144 1922 45 WP MM NOT_NAMED 1922-08-22 22:00:00 NR 25.0000 142.300 main 1122 __________O___ -1 25.0000 142.300 4 8 0

Digital Typhoon Data and Search

About IBTrACS Database

This database is a web-friendly format of International Best Track Archive for Climate Stewardship (IBTrACS), a global best track data archive curated by NOAA dating back to 1842.

Updated: 2021-11-26